x

Cape Suckling - 35 Nm Se Of Kayak Is, Ak (46082) Wave Buoy

8:50pm - Tue 30th Sep 2014 All times are AKDT. -8 hours from GMT.

  • Sig Wave height 4.9ft
  • Peak Period 5s
  • Average Period 4s
  • Wind
    20mph, 25mph gusts
  • Sea Temp 55°f
  • Air Temp 51°f
  • Sea Pressure 1017.8mb
  • Cape Suckling - 35 Nm Se Of Kayak Is, Ak
  • Cape Suckling - 35 Nm Se Of Kayak Is, Ak

More Historic Weather Station data

Upgrade to MSW Pro to gain access to the past 30 days of data for over 8000 Wavebouys and Weather Stations around the globe.

Join Pro

Comparision Forecast

View Surf forecast
   
Tue 09/30 8:50pm 5ft 5s 4s 20 25 mph 1017.8mb 55f 51f
7:50pm 5.5ft 5s 5s 18 20 mph 1017.2mb 55f 51f
6:50pm 5.5ft 8s 5s 18 22 mph 1016.4mb 55f 52f
5:50pm 5ft 5s 5s 18 22 mph 1015.7mb 55f 53f
4:50pm 4.5ft 5s 4s 16 18 mph 1015.4mb 55f 53f
3:50pm 5.5ft 8s 5s 20 25 mph 1014.4mb 55f 52f
2:50pm 6ft 9s 5s 13 18 mph 1013.7mb 55f 52f
1:50pm 6ft 8s 5s 18 22 mph 1012.9mb 55f 52f
12:50pm 6ft 8s 5s 16 22 mph 1011.7mb 55f 51f
11:50am 7ft 9s 6s 16 20 mph 1010.7mb 55f 51f
10:50am 6.5ft 9s 5s 22 25 mph 1009.6mb 55f 50f
9:50am 7ft 10s 6s 25 27 mph 1008.5mb 55f 49f
8:50am 7ft 10s 6s 27 31 mph 1007.5mb 55f 49f
7:50am 7ft 10s 6s 29 34 mph 1006.5mb 55f 50f
6:50am 7.5ft 8s 6s 20 25 mph 1005.8mb 55f 49f
5:50am 7ft 8s 5s 25 29 mph 1005.3mb 55f 51f
4:50am 6.5ft 8s 5s 18 25 mph 1004.9mb 55f 51f
3:50am 6ft 5s 5s 22 29 mph 1004.3mb 55f 51f
2:50am 6.5ft 5s 5s 27 34 mph 1002.8mb 55f 47f
1:50am 6ft 5s 5s 25 29 mph 1002.2mb 55f 46f
12:50am 5ft 8s 5s 25 29 mph 1002.5mb 55f 49f
Mon 09/29 11:50pm 5ft 8s 5s 20 25 mph 1002.4mb 55f 50f
10:50pm 4.5ft 8s 5s 16 20 mph 1002.8mb 56f 49f
9:50pm 4ft 9s 5s 18 25 mph 1002.6mb 56f 50f
8:50pm 4ft 8s 5s 27 34 mph 1002.6mb 56f 50f
7:50pm 4ft 9s 5s 13 16 mph 1003.3mb 56f 54f
6:50pm 4ft 8s 6s 13 16 mph 1003.8mb 56f 54f
5:50pm 4.5ft 8s 6s 13
mph
1004mb 56f 54f
4:50pm 4ft 8s 6s 11 13 mph 1004.2mb 56f 53f
3:50pm 4.5ft 8s 6s 11 13 mph 1004.6mb 56f 54f
2:50pm 4ft 9s 6s 13 16 mph 1004.7mb 56f 55f
1:50pm 4.5ft 8s 7s 9 11 mph 1005.1mb 56f 54f
12:50pm 4.5ft 8s 7s 7
mph
1005.4mb 56f 54f
11:50am 4.5ft 8s 7s 7
mph
1005.2mb 56f 54f
10:50am 4.5ft 8s 7s 4 7 mph 1004.7mb 56f 55f
9:50am 4.5ft 8s 7s 4 7 mph 1004.7mb 56f 54f
8:50am 4.5ft 9s 7s 7
mph
1004.4mb 55f 54f
7:50am 4.5ft 8s 7s 4 9 mph 1003.9mb 55f 54f
6:50am 4ft 9s 6s  -  2 mph 1003.9mb 55f 54f
5:50am 4ft 8s 6s 7 9 mph 1003.6mb 55f 54f
4:50am 4ft 8s 6s 4 7 mph 1003.3mb 55f 54f
3:50am 4ft 8s 6s 4 7 mph 1003.4mb 55f 54f
2:50am 4.5ft 8s 6s 4 7 mph 1003mb 55f 54f
1:50am 4.5ft 7s 6s 4
mph
1002.7mb 55f 54f
12:50am 4.5ft 8s 6s 4
mph
1002.2mb 55f 54f
Sun 09/28 11:50pm 4.5ft 9s 6s 4
mph
1001.9mb 55f 54f
10:50pm 4.5ft 8s 6s 4
mph
1001.6mb 55f 54f
9:50pm 4.5ft 8s 6s 4 7 mph 1001.1mb 56f 54f
8:50pm 5ft 9s 6s 4
mph
1000.7mb 56f 54f
7:50pm 5ft 8s 6s 2 4 mph 1000.3mb 56f 54f
6:50pm 5.5ft 9s 6s 2
mph
999.6mb 56f 54f
5:50pm 5ft 8s 6s 2 4 mph 999.1mb 56f 54f
4:50pm 5ft 8s 6s 9 11 mph 998.7mb 56f 54f
3:50pm 5ft 8s 6s 9 11 mph 998.4mb 55f 54f
2:50pm 4.5ft 8s 6s 11
mph
998.1mb 55f 54f
1:50pm 5ft 9s 6s 9 11 mph 998.1mb 55f 54f
12:50pm 5ft 8s 6s 9 11 mph 998.2mb 55f 54f
11:50am 6ft 8s 6s 9
mph
998mb 55f 53f
10:50am 6ft 8s 6s 9 11 mph 998mb 55f 53f
9:50am 6ft 9s 6s 9 11 mph 998.1mb 55f 53f
8:50am 8ft 9s 7s 7 9 mph 998.4mb 55f 53f
7:50am 7.5ft 9s 6s 4 7 mph 998.6mb 55f 53f
6:50am 8ft 7s 6s 7 9 mph 998.5mb 55f 53f
5:50am 8ft 8s 6s 9 11 mph 998.4mb 55f 53f
4:50am 7.5ft 7s 6s 13 16 mph 998.6mb 55f 53f
3:50am 7.5ft 8s 6s 18 20 mph 998.8mb 55f 53f
2:50am 7.5ft 8s 5s 20 25 mph 999.2mb 55f 53f
1:50am 8ft 8s 6s 25 29 mph 999.4mb 55f 54f
12:50am 7ft 8s 6s 16 18 mph 1000mb 55f 55f
Sat 09/27 11:50pm 7.5ft 8s 6s 13 16 mph 1000.1mb 55f 55f
10:50pm 7ft 8s 6s 13 18 mph 1000mb 56f 55f
9:50pm 7.5ft 7s 5s 11 13 mph 999.5mb 56f 54f
8:50pm 8.5ft 7s 5s 27 34 mph 997.8mb 56f 54f
7:50pm 8.5ft 7s 5s 31 38 mph 997.6mb 56f 53f
6:50pm 8.5ft 8s 5s 29 36 mph 997.6mb 56f 55f
5:50pm 7.5ft 8s 5s 25 29 mph 998mb 56f 55f
4:50pm 7.5ft 8s 5s 20 25 mph 998.8mb 55f 54f
3:50pm 8ft 8s 5s 22 27 mph 999.2mb 56f 55f
2:50pm 7.5ft 8s 5s 16 18 mph 999.6mb 56f 56f
1:50pm 8ft 8s 5s 16 18 mph 999.8mb 56f 55f
12:50pm 9ft 8s 5s 25 31 mph 999.7mb 56f 55f
11:50am 8.5ft 8s 5s 16 18 mph 1000mb 56f 56f
10:50am 9ft 7s 5s 22 29 mph 999.8mb 56f 56f
9:50am 9ft 8s 5s 27 34 mph 1000mb 56f 55f
8:50am 9ft 7s 5s 27 31 mph 1000mb 56f 54f
7:50am 9ft 7s 6s 27 34 mph 1000.5mb 56f 55f
6:50am 9ft 8s 6s 22 34 mph 1001.1mb 56f 55f
5:50am 9.5ft 7s 5s 22 27 mph 1001.2mb 56f 55f